Time;durP1;ratioP1;P1;durP2;ratioP2;P2;SDS_P1;SDS_P2;PMS_P1;PMS_P2;Temp;Humidity;BMP_temperature;BMP_pressure;BME280_temperature;BME280_humidity;BME280_pressure;Samples;Min_cycle;Max_cycle;Signal;HPM_P1;HPM_P2
2023/03/16 00:01:06;;;;;;;7.47;2.15;;;1.60;99.90;;;;;;5088879;28;20124;-78
2023/03/16 00:03:33;;;;;;;6.40;2.20;;;1.40;99.90;;;;;;5105426;28;20072;-78
2023/03/16 00:06:00;;;;;;;7.82;2.40;;;1.30;99.90;;;;;;5072176;28;20413;-78
2023/03/16 00:08:26;;;;;;;9.73;2.05;;;1.30;99.90;;;;;;5088509;28;20052;-78
2023/03/16 00:10:53;;;;;;;5.45;1.98;;;1.30;99.90;;;;;;5072470;28;20485;-78
2023/03/16 00:13:22;;;;;;;6.10;2.20;;;2.10;99.90;;;;;;5088594;28;20470;-77
2023/03/16 00:15:54;;;;;;;8.30;2.08;;;1.40;99.90;;;;;;5071576;28;20545;-78
2023/03/16 00:18:25;;;;;;;7.43;2.30;;;1.40;99.90;;;;;;5071526;28;20124;-78
2023/03/16 00:20:54;;;;;;;7.70;2.60;;;2.20;99.90;;;;;;5088261;28;20037;-77
2023/03/16 00:23:26;;;;;;;4.35;1.70;;;2.10;99.90;;;;;;5071609;28;20042;-77
2023/03/16 00:26:01;;;;;;;7.60;2.47;;;1.50;99.90;;;;;;5104143;28;20040;-78
2023/03/16 00:28:33;;;;;;;6.80;2.30;;;1.50;99.90;;;;;;5071499;28;20044;-78
2023/03/16 00:31:01;;;;;;;8.45;2.17;;;1.90;99.90;;;;;;5088461;28;20041;-77
2023/03/16 00:33:29;;;;;;;7.10;2.47;;;1.50;99.90;;;;;;5087775;28;20033;-77
2023/03/16 00:36:02;;;;;;;5.32;2.33;;;1.50;99.90;;;;;;5071502;28;20083;-78
2023/03/16 00:38:38;;;;;;;7.68;2.30;;;2.00;99.90;;;;;;5086890;28;20037;-79
2023/03/16 00:41:06;;;;;;;6.30;2.10;;;1.50;99.90;;;;;;5071378;28;20397;-79
2023/03/16 00:43:42;;;;;;;8.43;1.95;;;1.60;99.90;;;;;;5070849;28;20124;-79
2023/03/16 00:46:12;;;;;;;5.78;2.08;;;2.10;99.90;;;;;;5088149;28;20037;-78
2023/03/16 00:48:41;;;;;;;3.42;1.95;;;1.50;99.90;;;;;;5104345;28;20037;-79
2023/03/16 00:51:11;;;;;;;5.65;2.40;;;1.60;99.90;;;;;;5071211;28;20119;-79
2023/03/16 00:53:41;;;;;;;6.25;1.95;;;1.60;99.90;;;;;;5087401;28;20123;-79
2023/03/16 00:56:09;;;;;;;5.70;2.25;;;1.80;99.90;;;;;;5069891;28;20111;-79
2023/03/16 00:58:38;;;;;;;6.25;2.15;;;1.60;99.90;;;;;;5071050;28;20045;-79
2023/03/16 01:01:18;;;;;;;5.32;2.47;;;1.60;99.90;;;;;;5087412;28;20123;-79
2023/03/16 01:03:45;;;;;;;9.23;2.15;;;1.60;99.90;;;;;;5070859;28;20091;-79
2023/03/16 01:06:16;;;;;;;4.75;1.85;;;1.60;99.90;;;;;;5087627;28;20080;-79
2023/03/16 01:08:44;;;;;;;5.35;2.30;;;1.70;99.90;;;;;;5070678;28;20041;-79
2023/03/16 01:11:21;;;;;;;9.45;2.63;;;2.40;99.90;;;;;;5087486;28;20454;-79
2023/03/16 01:13:53;;;;;;;9.15;2.05;;;2.60;99.90;;;;;;5070612;28;20044;-79
2023/03/16 01:16:22;;;;;;;6.85;2.30;;;1.80;99.90;;;;;;5071019;28;20110;-79
2023/03/16 01:18:51;;;;;;;6.80;2.30;;;2.60;99.90;;;;;;5070419;28;20182;-78
2023/03/16 01:21:20;;;;;;;6.20;2.13;;;2.60;99.90;;;;;;5103638;28;20105;-79
2023/03/16 01:23:47;;;;;;;6.47;2.30;;;2.50;99.90;;;;;;5070279;28;20374;-79
2023/03/16 01:26:17;;;;;;;7.60;2.42;;;1.70;99.90;;;;;;5087602;28;20047;-79
2023/03/16 01:28:44;;;;;;;6.55;2.25;;;1.80;99.90;;;;;;5086957;28;20032;-79
2023/03/16 01:31:13;;;;;;;9.25;2.50;;;1.70;99.90;;;;;;5070289;28;20040;-79
2023/03/16 01:33:40;;;;;;;6.32;2.35;;;1.80;99.90;;;;;;5086344;28;20038;-78
2023/03/16 01:36:16;;;;;;;9.02;2.60;;;1.70;99.90;;;;;;5103622;28;20045;-79
2023/03/16 01:38:43;;;;;;;6.70;2.40;;;1.80;99.90;;;;;;5070242;28;20084;-79
2023/03/16 01:41:10;;;;;;;8.60;2.55;;;1.90;99.90;;;;;;5070441;28;20037;-79
2023/03/16 01:43:40;;;;;;;7.18;2.45;;;1.80;99.90;;;;;;5070596;28;20086;-78
2023/03/16 01:46:06;;;;;;;8.07;2.45;;;2.40;99.90;;;;;;5103459;28;20041;-79
2023/03/16 01:48:57;;;;;;;6.10;2.42;;;1.90;99.90;;;;;;5103251;28;20122;-79
2023/03/16 01:51:44;;;;;;;6.53;2.30;;;1.90;99.90;;;;;;5086484;28;20072;-79
2023/03/16 01:54:22;;;;;;;6.28;2.10;;;1.90;99.90;;;;;;5070001;28;20040;-79
2023/03/16 01:57:06;;;;;;;9.07;2.42;;;2.00;99.90;;;;;;5069789;28;20057;-79
2023/03/16 01:59:50;;;;;;;5.90;2.33;;;2.00;99.90;;;;;;5103332;28;20524;-79
2023/03/16 02:02:19;;;;;;;6.22;2.35;;;2.00;99.90;;;;;;5069992;28;20055;-79
2023/03/16 02:05:14;;;;;;;8.25;2.60;;;2.80;99.90;;;;;;5069452;28;20041;-79
2023/03/16 02:07:46;;;;;;;14.20;3.05;;;2.00;99.90;;;;;;5103394;28;20051;-79
2023/03/16 02:10:15;;;;;;;7.50;2.72;;;2.00;99.90;;;;;;5069586;28;20037;-79
2023/03/16 02:12:43;;;;;;;7.45;2.50;;;2.00;99.90;;;;;;5086304;28;20049;-79
2023/03/16 02:15:11;;;;;;;5.47;2.53;;;2.00;99.90;;;;;;5119618;28;20125;-79
2023/03/16 02:17:38;;;;;;;7.43;2.35;;;2.00;99.90;;;;;;5086110;28;20078;-79
2023/03/16 02:20:08;;;;;;;6.65;2.53;;;2.00;99.90;;;;;;5086001;28;20115;-79
2023/03/16 02:22:41;;;;;;;8.43;2.47;;;2.00;99.90;;;;;;5102209;28;20049;-79
2023/03/16 02:25:08;;;;;;;4.78;2.50;;;2.00;99.90;;;;;;5069290;28;20090;-79
2023/03/16 02:27:55;;;;;;;4.95;2.20;;;2.10;99.90;;;;;;5085924;28;20051;-79
2023/03/16 02:30:22;;;;;;;8.20;2.70;;;2.10;99.90;;;;;;5086324;28;20110;-79
2023/03/16 02:32:52;;;;;;;5.63;2.35;;;2.10;99.90;;;;;;5069005;28;20048;-79
2023/03/16 02:35:19;;;;;;;8.65;2.60;;;2.10;99.90;;;;;;5085801;28;20037;-79
2023/03/16 02:37:46;;;;;;;8.85;2.55;;;2.60;99.90;;;;;;5102484;28;20037;-80
2023/03/16 02:40:28;;;;;;;7.20;2.85;;;1.80;99.90;;;;;;5085517;28;20040;-79
2023/03/16 02:43:09;;;;;;;5.85;2.38;;;2.10;99.90;;;;;;5068920;28;20037;-79
2023/03/16 02:45:45;;;;;;;11.55;2.55;;;1.80;99.90;;;;;;5085944;28;20040;-79
2023/03/16 02:48:15;;;;;;;;;;;2.90;99.90;;;;;;5086146;28;20037;-79
2023/03/16 02:50:47;;;;;;;8.25;2.53;;;2.20;99.90;;;;;;5068779;28;19944;-79
2023/03/16 02:53:14;;;;;;;6.78;2.38;;;2.20;99.90;;;;;;5084853;28;20512;-79
2023/03/16 02:55:41;;;;;;;6.63;3.08;;;2.70;99.90;;;;;;5085591;28;20045;-79
2023/03/16 02:58:10;;;;;;;7.20;2.63;;;2.20;99.90;;;;;;5085224;28;20457;-79
2023/03/16 03:00:38;;;;;;;6.47;2.90;;;2.20;99.90;;;;;;5085609;28;20110;-79
2023/03/16 03:03:08;;;;;;;9.07;2.60;;;2.30;99.90;;;;;;5085574;28;20037;-79
2023/03/16 03:05:35;;;;;;;8.75;2.55;;;2.30;99.90;;;;;;5102356;28;20045;-79
2023/03/16 03:08:03;;;;;;;8.75;2.72;;;2.40;99.90;;;;;;5085624;28;20098;-79
2023/03/16 03:10:30;;;;;;;13.32;3.17;;;2.60;99.90;;;;;;5102126;28;20040;-79
2023/03/16 03:12:57;;;;;;;7.90;2.55;;;2.40;99.90;;;;;;5085052;28;20049;-79
2023/03/16 03:15:24;;;;;;;8.02;2.50;;;2.40;99.90;;;;;;5085328;28;20037;-79
2023/03/16 03:17:50;;;;;;;7.47;2.97;;;2.40;99.90;;;;;;5068690;28;20037;-79
2023/03/16 03:20:18;;;;;;;6.78;2.60;;;2.50;99.90;;;;;;5105238;28;20040;-79
2023/03/16 03:22:48;;;;;;;5.40;2.60;;;2.50;99.90;;;;;;5123099;28;20075;-79
2023/03/16 03:25:17;;;;;;;8.90;2.58;;;2.90;99.90;;;;;;5072289;28;20091;-79
2023/03/16 03:27:45;;;;;;;6.50;2.10;;;3.30;99.90;;;;;;5105961;28;20102;-79
2023/03/16 03:30:19;;;;;;;8.15;2.35;;;3.10;99.90;;;;;;5072693;28;20032;-79
2023/03/16 03:32:45;;;;;;;8.70;2.55;;;2.60;99.90;;;;;;5105854;28;20049;-79
2023/03/16 03:35:14;;;;;;;8.88;2.60;;;2.60;99.90;;;;;;5089267;28;20044;-79
2023/03/16 03:37:43;;;;;;;6.68;2.58;;;2.60;99.90;;;;;;5106059;28;20147;-79
2023/03/16 03:40:12;;;;;;;11.68;2.90;;;2.60;99.90;;;;;;5105451;28;20045;-79
2023/03/16 03:42:39;;;;;;;6.22;2.90;;;2.60;99.90;;;;;;5072710;28;20040;-79
2023/03/16 03:45:07;;;;;;;6.78;3.17;;;2.60;99.90;;;;;;5105496;28;20037;-79
2023/03/16 03:47:34;;;;;;;5.75;2.78;;;2.70;99.90;;;;;;5089022;28;20382;-79
2023/03/16 03:50:00;;;;;;;5.88;2.50;;;2.70;99.90;;;;;;5088653;28;20048;-79
2023/03/16 03:52:27;;;;;;;7.07;2.88;;;2.70;99.90;;;;;;5072178;28;20044;-79
2023/03/16 03:54:54;;;;;;;11.77;3.20;;;2.90;99.90;;;;;;5088828;28;20509;-79
2023/03/16 03:57:21;;;;;;;4.63;2.35;;;2.70;99.90;;;;;;5088540;28;20045;-79
2023/03/16 03:59:48;;;;;;;5.60;2.85;;;2.80;99.90;;;;;;5072640;28;20135;-79
2023/03/16 04:02:15;;;;;;;7.70;3.13;;;2.80;99.90;;;;;;5105406;28;20044;-79
2023/03/16 04:04:43;;;;;;;6.72;2.70;;;2.90;99.90;;;;;;5088869;28;20056;-79
2023/03/16 04:07:10;;;;;;;6.78;2.63;;;2.80;99.90;;;;;;5104842;28;20051;-79
2023/03/16 04:09:37;;;;;;;6.30;2.97;;;2.80;99.90;;;;;;5071843;28;20036;-79
2023/03/16 04:12:05;;;;;;;6.88;3.13;;;2.90;99.90;;;;;;5088357;28;20499;-79
2023/03/16 04:14:32;;;;;;;12.35;2.67;;;2.90;99.90;;;;;;5121943;28;20037;-79
2023/03/16 04:16:59;;;;;;;6.60;2.75;;;2.90;99.90;;;;;;5122393;28;20076;-79
2023/03/16 04:19:26;;;;;;;7.38;2.50;;;2.90;99.90;;;;;;5104751;28;20076;-79
2023/03/16 04:21:52;;;;;;;5.43;2.75;;;2.90;99.90;;;;;;5088522;28;20597;-79
2023/03/16 04:24:21;;;;;;;5.32;2.65;;;2.90;99.90;;;;;;5088381;28;20044;-79
2023/03/16 04:26:47;;;;;;;9.27;2.53;;;2.90;99.90;;;;;;5104979;28;20517;-79
2023/03/16 04:29:18;;;;;;;8.70;2.80;;;3.50;99.90;;;;;;5104569;28;20041;-79
2023/03/16 04:31:45;;;;;;;5.47;2.80;;;2.90;99.90;;;;;;5070204;28;20410;-79
2023/03/16 04:34:12;;;;;;;7.25;2.85;;;3.00;99.90;;;;;;5071486;28;20174;-79
2023/03/16 04:36:40;;;;;;;6.70;2.72;;;3.00;99.90;;;;;;5088041;28;20044;-79
2023/03/16 04:39:08;;;;;;;7.20;2.78;;;3.20;99.90;;;;;;5087394;28;20044;-79
2023/03/16 04:41:35;;;;;;;5.53;2.70;;;3.00;99.90;;;;;;5071607;28;20132;-79
2023/03/16 04:44:03;;;;;;;8.07;2.90;;;3.00;99.90;;;;;;5104654;28;20536;-79
2023/03/16 04:46:31;;;;;;;7.93;2.85;;;3.00;99.90;;;;;;5087580;28;20099;-79
2023/03/16 04:48:58;;;;;;;6.35;2.60;;;3.00;99.90;;;;;;5104693;28;20033;-79
2023/03/16 04:51:25;;;;;;;6.18;2.95;;;3.00;99.90;;;;;;5071056;28;20047;-79
2023/03/16 04:53:52;;;;;;;7.75;3.30;;;3.00;99.90;;;;;;5087895;28;20692;-79
2023/03/16 04:56:19;;;;;;;6.43;2.85;;;3.50;99.90;;;;;;5104053;28;20049;-79
2023/03/16 04:58:48;;;;;;;8.10;2.92;;;3.10;99.90;;;;;;5087857;28;20384;-79
2023/03/16 05:01:15;;;;;;;6.40;2.83;;;3.10;99.90;;;;;;5087393;28;20379;-79
2023/03/16 05:03:42;;;;;;;7.63;2.80;;;3.00;99.90;;;;;;5087311;28;20051;-79
2023/03/16 05:06:10;;;;;;;7.55;3.38;;;3.10;99.90;;;;;;5070821;28;20127;-79
2023/03/16 05:08:37;;;;;;;6.57;2.92;;;3.00;99.90;;;;;;5070675;28;20041;-79
2023/03/16 05:11:04;;;;;;;7.50;3.03;;;3.10;99.90;;;;;;5087217;28;20090;-79
2023/03/16 05:13:31;;;;;;;9.27;3.50;;;3.00;99.90;;;;;;5086609;28;20029;-79
2023/03/16 05:15:58;;;;;;;5.65;3.03;;;3.00;99.90;;;;;;5054011;28;20167;-79
2023/03/16 05:18:24;;;;;;;8.95;3.72;;;3.10;99.90;;;;;;5069995;28;20456;-79
2023/03/16 05:20:55;;;;;;;8.38;3.20;;;3.10;99.90;;;;;;5053982;28;20128;-79
2023/03/16 05:23:22;;;;;;;8.88;3.10;;;3.10;99.90;;;;;;5070137;28;20136;-79
2023/03/16 05:25:49;;;;;;;7.07;2.95;;;3.30;99.90;;;;;;5087219;28;20049;-79
2023/03/16 05:28:16;;;;;;;7.25;2.83;;;3.30;99.90;;;;;;5054216;28;20033;-79
2023/03/16 05:30:46;;;;;;;7.90;2.97;;;3.10;99.90;;;;;;5070426;28;20106;-79
2023/03/16 05:33:13;;;;;;;7.00;3.25;;;3.30;99.90;;;;;;5069834;28;20175;-79
2023/03/16 05:35:39;;;;;;;5.50;1.95;;;3.10;99.90;;;;;;5103588;28;20149;-79
2023/03/16 05:38:07;;;;;;;5.95;2.45;;;3.20;99.90;;;;;;5086098;28;20044;-79
2023/03/16 05:40:34;;;;;;;7.35;2.60;;;3.10;99.90;;;;;;5085898;28;20045;-79
2023/03/16 05:43:01;;;;;;;4.75;1.80;;;3.20;99.90;;;;;;5102485;28;20047;-79
2023/03/16 05:45:27;;;;;;;5.15;2.00;;;3.40;99.90;;;;;;5086263;28;20401;-79
2023/03/16 05:47:54;;;;;;;5.72;2.22;;;3.20;99.90;;;;;;5069597;28;20036;-79
2023/03/16 05:50:21;;;;;;;5.00;2.17;;;3.50;99.90;;;;;;5069254;28;20037;-79
2023/03/16 05:52:48;;;;;;;6.13;2.60;;;3.20;99.90;;;;;;5086143;28;20047;-79
2023/03/16 05:55:16;;;;;;;4.80;2.10;;;3.20;99.90;;;;;;5069628;28;20087;-79
2023/03/16 05:57:43;;;;;;;7.20;1.98;;;3.20;99.90;;;;;;5069025;28;20126;-79
2023/03/16 06:00:17;;;;;;;4.53;2.08;;;3.30;99.90;;;;;;5086280;28;20056;-79
2023/03/16 06:02:46;;;;;;;6.50;2.08;;;3.20;99.90;;;;;;5085575;28;20045;-79
2023/03/16 06:05:14;;;;;;;7.53;2.20;;;3.30;99.90;;;;;;5070046;28;20052;-79
2023/03/16 06:07:41;;;;;;;5.28;2.20;;;3.30;99.90;;;;;;5086092;28;20424;-79
2023/03/16 06:10:10;;;;;;;4.93;1.95;;;3.30;99.90;;;;;;5085949;28;20120;-79
2023/03/16 06:12:37;;;;;;;4.97;2.13;;;3.30;99.90;;;;;;5069362;28;20049;-79
2023/03/16 06:15:09;;;;;;;6.95;2.28;;;3.30;99.90;;;;;;5069288;28;20750;-79
2023/03/16 06:17:36;;;;;;;5.63;2.50;;;3.30;99.90;;;;;;5053684;28;20029;-79
2023/03/16 06:20:10;;;;;;;8.98;2.30;;;3.30;99.90;;;;;;5053426;28;20044;-79
2023/03/16 06:22:38;;;;;;;8.70;2.08;;;3.40;99.90;;;;;;5086441;28;20123;-79
2023/03/16 06:25:08;;;;;;;7.18;2.30;;;3.40;99.90;;;;;;5069750;28;20045;-79
2023/03/16 06:27:36;;;;;;;7.70;2.28;;;3.40;99.90;;;;;;5053641;28;20096;-79
2023/03/16 06:30:04;;;;;;;8.85;2.05;;;3.50;99.90;;;;;;5069740;28;20037;-79
2023/03/16 06:32:30;;;;;;;5.05;2.22;;;3.40;99.90;;;;;;5069872;28;20494;-79
2023/03/16 06:35:00;;;;;;;6.38;2.47;;;3.90;99.90;;;;;;5069883;28;20094;-79
2023/03/16 06:37:28;;;;;;;4.13;1.95;;;3.50;99.90;;;;;;5053101;28;20041;-79
2023/03/16 06:39:55;;;;;;;6.20;2.15;;;3.50;99.90;;;;;;5085759;28;20044;-79
2023/03/16 06:42:22;;;;;;;4.50;2.20;;;3.70;99.90;;;;;;5052254;28;20045;-79
2023/03/16 06:44:50;;;;;;;4.43;2.22;;;3.60;99.90;;;;;;5085445;28;20124;-79
2023/03/16 06:47:16;;;;;;;5.72;2.60;;;3.80;99.90;;;;;;5102644;28;20551;-79
2023/03/16 06:49:45;;;;;;;5.32;2.53;;;3.60;99.90;;;;;;5069262;28;20036;-79
2023/03/16 06:52:13;;;;;;;4.38;2.10;;;3.60;99.90;;;;;;5068933;28;20041;-79
2023/03/16 06:54:40;;;;;;;4.97;2.10;;;3.70;99.90;;;;;;5084705;28;20041;-79
2023/03/16 06:57:07;;;;;;;6.15;2.75;;;3.70;99.90;;;;;;5085279;28;20402;-79
2023/03/16 06:59:34;;;;;;;6.10;2.10;;;3.70;99.90;;;;;;5102212;28;20049;-79
2023/03/16 07:02:01;;;;;;;5.15;2.30;;;3.70;99.90;;;;;;5102455;28;20106;-79
2023/03/16 07:04:28;;;;;;;7.93;2.13;;;3.70;99.90;;;;;;5102071;28;20147;-79
2023/03/16 07:06:54;;;;;;;5.35;2.78;;;3.90;99.90;;;;;;5085446;28;20049;-79
2023/03/16 07:09:21;;;;;;;4.30;2.00;;;3.70;99.90;;;;;;5085425;28;20504;-79
2023/03/16 07:11:48;;;;;;;4.72;2.10;;;3.90;99.90;;;;;;5068208;28;20049;-79
2023/03/16 07:14:15;;;;;;;4.30;2.20;;;3.90;99.90;;;;;;5085214;28;20098;-79
2023/03/16 07:16:42;;;;;;;7.43;2.40;;;3.80;99.90;;;;;;5101630;28;20124;-79
2023/03/16 07:19:08;;;;;;;4.82;2.25;;;4.20;99.90;;;;;;5068887;28;20556;-79
2023/03/16 07:21:39;;;;;;;6.28;2.45;;;3.90;99.90;;;;;;5068212;28;20045;-79
2023/03/16 07:24:08;;;;;;;4.95;2.15;;;3.90;99.90;;;;;;5068368;28;20147;-79
2023/03/16 07:26:35;;;;;;;6.32;2.58;;;3.90;99.90;;;;;;5101578;28;20194;-79
2023/03/16 07:29:05;;;;;;;7.93;1.98;;;4.00;99.90;;;;;;5068398;28;20128;-79
2023/03/16 07:31:33;;;;;;;6.78;2.40;;;4.00;99.90;;;;;;5068366;28;20413;-80
2023/03/16 07:34:01;;;;;;;9.00;2.22;;;4.00;99.90;;;;;;5084920;28;20094;-79
2023/03/16 07:36:28;;;;;;;5.22;2.25;;;4.00;99.90;;;;;;5085043;28;20037;-79
2023/03/16 07:38:54;;;;;;;5.25;2.22;;;4.40;99.90;;;;;;5068652;28;20202;-79
2023/03/16 07:41:21;;;;;;;3.70;1.92;;;4.10;99.90;;;;;;5101772;28;20037;-79
2023/03/16 07:43:48;;;;;;;3.85;1.90;;;4.10;99.90;;;;;;5067959;28;20508;-79
2023/03/16 07:46:14;;;;;;;4.65;1.92;;;4.70;99.90;;;;;;5084864;28;20128;-79
2023/03/16 07:48:43;;;;;;;5.13;2.38;;;4.10;99.90;;;;;;5101955;28;20520;-79
2023/03/16 07:51:11;;;;;;;7.65;2.45;;;4.10;99.90;;;;;;5085527;28;20040;-79
2023/03/16 07:53:38;;;;;;;6.32;2.33;;;4.20;99.90;;;;;;5101920;28;20041;-79
2023/03/16 07:56:06;;;;;;;5.10;2.20;;;4.10;99.90;;;;;;5085061;28;20052;-79
2023/03/16 07:58:32;;;;;;;4.47;2.10;;;4.20;99.90;;;;;;5118430;28;20057;-79
2023/03/16 08:01:00;;;;;;;4.65;2.15;;;4.30;99.90;;;;;;5085109;28;20516;-79
2023/03/16 08:03:28;;;;;;;6.30;2.25;;;4.20;99.90;;;;;;5085338;28;20041;-79
2023/03/16 08:05:55;;;;;;;6.63;2.20;;;4.20;99.90;;;;;;5103956;28;20045;-79
2023/03/16 08:08:22;;;;;;;4.40;2.13;;;4.50;99.90;;;;;;5088801;28;20043;-79
2023/03/16 08:10:53;;;;;;;5.60;2.08;;;4.30;99.90;;;;;;5055140;28;20508;-79
2023/03/16 08:13:21;;;;;;;4.30;1.95;;;4.40;99.90;;;;;;5072140;28;20053;-79
2023/03/16 08:15:54;;;;;;;4.35;2.08;;;4.40;99.90;;;;;;5071355;28;20045;-80
2023/03/16 08:18:22;;;;;;;6.07;2.28;;;4.40;99.90;;;;;;5072794;28;20049;-79
2023/03/16 08:20:49;;;;;;;6.13;2.72;;;4.50;99.90;;;;;;5055858;28;20063;-79
2023/03/16 08:23:16;;;;;;;8.90;2.05;;;4.60;99.90;;;;;;5072465;28;20119;-79
2023/03/16 08:25:43;;;;;;;7.47;2.10;;;4.90;99.90;;;;;;5055349;28;20497;-79
2023/03/16 08:28:09;;;;;;;6.70;2.25;;;4.60;99.90;;;;;;5072159;28;20040;-78
2023/03/16 08:30:36;;;;;;;4.95;2.38;;;4.60;99.90;;;;;;5055047;28;20041;-79
2023/03/16 08:33:03;;;;;;;3.90;2.03;;;4.60;99.90;;;;;;5055219;28;20079;-79
2023/03/16 08:35:30;;;;;;;6.65;2.20;;;4.60;99.90;;;;;;5055322;28;20048;-79
2023/03/16 08:37:58;;;;;;;4.82;2.28;;;4.70;99.90;;;;;;5104588;28;20041;-79
2023/03/16 08:40:28;;;;;;;5.75;2.47;;;4.70;99.90;;;;;;5087825;28;20041;-79
2023/03/16 08:42:54;;;;;;;5.18;1.98;;;4.80;99.90;;;;;;5071345;28;20080;-80
2023/03/16 08:45:22;;;;;;;5.22;1.98;;;4.90;99.90;;;;;;5071615;28;20142;-79
2023/03/16 08:47:49;;;;;;;4.10;1.70;;;4.90;99.90;;;;;;5071178;28;20401;-79
2023/03/16 08:50:18;;;;;;;5.93;2.15;;;5.00;99.90;;;;;;5088110;28;20759;-79
2023/03/16 08:52:45;;;;;;;6.53;2.30;;;5.30;99.90;;;;;;5071014;28;20047;-79
2023/03/16 08:55:12;;;;;;;5.72;2.50;;;5.00;99.90;;;;;;5071205;28;20044;-79
2023/03/16 08:57:39;;;;;;;5.05;2.05;;;5.00;99.90;;;;;;5070761;28;20045;-80
2023/03/16 09:00:13;;;;;;;6.22;2.42;;;5.10;99.90;;;;;;5070984;28;20059;-77
2023/03/16 09:02:42;;;;;;;5.63;2.08;;;5.00;99.90;;;;;;5070936;28;20048;-82
2023/03/16 09:05:13;;;;;;;5.75;2.17;;;5.00;99.90;;;;;;5070849;28;20043;-82
2023/03/16 09:07:41;;;;;;;5.53;2.20;;;5.20;99.90;;;;;;5070957;28;20120;-82
2023/03/16 09:10:12;;;;;;;4.15;2.30;;;5.00;99.90;;;;;;5070658;28;20486;-82
2023/03/16 09:12:42;;;;;;;4.55;2.30;;;4.90;99.90;;;;;;5070499;28;20073;-82
2023/03/16 09:15:11;;;;;;;6.32;2.38;;;5.10;99.90;;;;;;5054344;28;20478;-82
2023/03/16 09:17:40;;;;;;;6.53;2.40;;;4.90;99.90;;;;;;5086383;28;20143;-82
2023/03/16 09:20:08;;;;;;;5.50;2.17;;;4.90;99.90;;;;;;5070870;28;20047;-82
2023/03/16 09:22:36;;;;;;;9.27;2.88;;;4.90;99.90;;;;;;5054173;28;20489;-83
2023/03/16 09:25:07;;;;;;;4.78;2.47;;;5.00;99.90;;;;;;5070318;28;20646;-83
2023/03/16 09:27:37;;;;;;;5.07;2.38;;;5.00;99.90;;;;;;5070616;28;20109;-83
2023/03/16 09:30:06;;;;;;;5.18;2.08;;;5.10;99.90;;;;;;5102873;28;20029;-83
2023/03/16 09:32:33;;;;;;;6.22;2.40;;;5.10;99.90;;;;;;5120738;28;20037;-83
2023/03/16 09:35:01;;;;;;;4.90;2.25;;;5.20;99.90;;;;;;5070111;28;20544;-83
2023/03/16 09:37:28;;;;;;;6.60;2.30;;;5.20;99.90;;;;;;5103396;28;20048;-83
2023/03/16 09:39:55;;;;;;;5.78;2.47;;;5.20;99.90;;;;;;5069924;28;20045;-83
2023/03/16 09:42:35;;;;;;;4.78;2.45;;;5.20;99.90;;;;;;5087133;28;20044;-83
2023/03/16 09:45:14;;;;;;;5.63;2.20;;;5.20;99.90;;;;;;5103615;28;20080;-83
2023/03/16 09:47:44;;;;;;;5.90;2.67;;;5.20;99.90;;;;;;5103604;28;20864;-83
2023/03/16 09:50:22;;;;;;;7.43;2.88;;;5.30;99.90;;;;;;5085781;28;20485;-83
2023/03/16 09:52:54;;;;;;;6.47;2.70;;;5.30;99.90;;;;;;5086025;28;20041;-83
2023/03/16 09:55:32;;;;;;;6.22;2.63;;;5.30;99.90;;;;;;5069790;28;20124;-83
2023/03/16 09:58:00;;;;;;;6.35;2.17;;;5.40;99.90;;;;;;5069396;28;20056;-82
2023/03/16 10:00:36;;;;;;;5.03;2.38;;;5.40;99.90;;;;;;5102824;28;20053;-83
2023/03/16 10:03:05;;;;;;;;;;;5.40;99.90;;;;;;5069931;28;20041;-83
2023/03/16 10:05:34;;;;;;;7.45;2.70;;;5.50;99.90;;;;;;5101092;28;19963;-83
2023/03/16 10:08:07;;;;;;;11.35;2.80;;;5.60;99.90;;;;;;5069599;28;20037;-83
2023/03/16 10:10:55;;;;;;;8.93;3.15;;;5.70;99.90;;;;;;5068993;28;20182;-83
2023/03/16 10:13:28;;;;;;;7.22;2.70;;;5.80;99.90;;;;;;5085547;28;20084;-83
2023/03/16 10:15:57;;;;;;;6.93;2.72;;;5.90;99.90;;;;;;5102165;28;20461;-83
2023/03/16 10:18:28;;;;;;;6.47;2.50;;;6.00;99.90;;;;;;5069304;28;20041;-83
2023/03/16 10:20:56;;;;;;;7.72;2.80;;;6.10;99.90;;;;;;5085642;28;20102;-83
2023/03/16 10:23:24;;;;;;;6.90;2.53;;;6.20;99.90;;;;;;5069364;28;20048;-83
2023/03/16 10:25:55;;;;;;;4.60;2.63;;;6.20;99.90;;;;;;5069152;28;20443;-83
2023/03/16 10:28:27;;;;;;;5.90;2.35;;;6.20;99.90;;;;;;5049362;28;20041;-83
2023/03/16 10:30:55;;;;;;;7.93;3.05;;;6.30;99.90;;;;;;5091069;28;20455;-83
2023/03/16 10:33:32;;;;;;;6.22;2.75;;;6.30;99.90;;;;;;5069008;28;20382;-83
2023/03/16 10:36:09;;;;;;;6.78;3.10;;;6.40;99.90;;;;;;5102154;28;20075;-83
2023/03/16 10:38:38;;;;;;;7.85;2.60;;;6.40;99.90;;;;;;5068743;28;20273;-83
2023/03/16 10:41:31;;;;;;;5.38;2.50;;;6.50;99.90;;;;;;5068878;28;20052;-83
2023/03/16 10:44:13;;;;;;;5.30;2.60;;;6.50;99.90;;;;;;5068728;28;20037;-83
2023/03/16 10:46:47;;;;;;;5.03;2.55;;;6.50;99.90;;;;;;5068446;28;20468;-83
2023/03/16 10:49:40;;;;;;;7.80;2.67;;;6.50;99.90;;;;;;5101642;28;20045;-83
2023/03/16 10:52:37;;;;;;;7.07;2.80;;;6.50;99.90;;;;;;5064685;28;20057;-83
2023/03/16 10:55:18;;;;;;;6.13;2.95;;;6.60;99.90;;;;;;5118613;28;20041;-83
2023/03/16 10:57:52;;;;;;;10.52;2.60;;;6.60;99.90;;;;;;5101871;28;20041;-83
2023/03/16 11:00:21;;;;;;;6.35;2.80;;;6.60;99.90;;;;;;5101505;28;20045;-83
2023/03/16 11:02:50;;;;;;;5.90;3.00;;;6.60;99.90;;;;;;5101718;28;20368;-83
2023/03/16 11:05:16;;;;;;;6.47;2.88;;;6.50;99.90;;;;;;5084996;28;20044;-83
2023/03/16 11:07:55;;;;;;;7.82;3.03;;;6.50;99.90;;;;;;5102277;28;20132;-83
2023/03/16 11:10:32;;;;;;;6.30;3.28;;;6.50;99.90;;;;;;5101772;28;20045;-83
2023/03/16 11:13:10;;;;;;;7.15;2.83;;;6.40;99.90;;;;;;5102060;28;20045;-83
2023/03/16 11:15:44;;;;;;;6.15;2.90;;;6.40;99.90;;;;;;5085334;28;20037;-83
2023/03/16 11:18:29;;;;;;;7.18;2.65;;;6.30;99.90;;;;;;5061271;28;20037;-83
2023/03/16 11:21:01;;;;;;;6.85;2.72;;;6.20;99.90;;;;;;5085535;28;20080;-83
2023/03/16 11:23:36;;;;;;;6.25;2.70;;;6.20;99.90;;;;;;5068243;28;20076;-83
2023/03/16 11:26:09;;;;;;;8.10;2.75;;;6.20;99.90;;;;;;5101923;28;20083;-83
2023/03/16 11:28:42;;;;;;;7.90;3.13;;;6.10;99.90;;;;;;5085249;28;20076;-83
2023/03/16 11:31:26;;;;;;;7.32;2.55;;;6.10;99.90;;;;;;5068051;28;20041;-83
2023/03/16 11:33:56;;;;;;;5.00;2.35;;;6.10;99.90;;;;;;5068483;28;20036;-83
2023/03/16 11:36:59;;;;;;;6.75;2.40;;;6.10;99.90;;;;;;5101887;28;20040;-83
2023/03/16 11:39:31;;;;;;;9.00;2.80;;;6.00;99.90;;;;;;5101423;28;20052;-83
2023/03/16 11:42:12;;;;;;;6.82;2.67;;;6.00;99.90;;;;;;5105963;28;20124;-83
2023/03/16 11:44:58;;;;;;;4.82;2.40;;;6.00;99.90;;;;;;5105292;28;20036;-83
2023/03/16 11:47:54;;;;;;;7.88;2.97;;;6.00;99.90;;;;;;5105608;28;20394;-83
2023/03/16 11:50:21;;;;;;;;;;;5.90;99.90;;;;;;5072513;28;20037;-83
2023/03/16 11:53:21;;;;;;;5.22;2.40;;;6.00;99.90;;;;;;5105333;28;19927;-83
2023/03/16 11:56:03;;;;;;;5.97;2.70;;;5.90;99.90;;;;;;5085227;28;20124;-83
2023/03/16 11:58:51;;;;;;;5.43;2.85;;;5.90;99.90;;;;;;5072113;28;20102;-83
2023/03/16 12:01:43;;;;;;;7.30;2.88;;;6.00;99.90;;;;;;5071882;28;20477;-83
2023/03/16 12:04:40;;;;;;;5.07;2.60;;;6.10;99.90;;;;;;5071535;28;20037;-83
2023/03/16 12:07:13;;;;;;;5.78;2.88;;;6.10;99.90;;;;;;5071773;28;20045;-83
2023/03/16 12:10:08;;;;;;;6.55;3.30;;;6.10;99.90;;;;;;5104859;28;20126;-83
2023/03/16 12:13:06;;;;;;;7.47;2.63;;;6.10;99.90;;;;;;5122587;28;20083;-83
2023/03/16 12:15:46;;;;;;;4.35;2.13;;;6.10;99.90;;;;;;5122267;28;20542;-83
2023/03/16 12:18:23;;;;;;;6.38;2.60;;;6.10;99.90;;;;;;5104833;28;20055;-83
2023/03/16 12:21:01;;;;;;;5.65;2.70;;;6.00;99.90;;;;;;5072190;28;20041;-83
2023/03/16 12:23:31;;;;;;;5.93;2.40;;;6.00;99.90;;;;;;5071743;28;20045;-83
2023/03/16 12:25:59;;;;;;;5.25;2.55;;;6.00;99.90;;;;;;5088117;28;20489;-84
2023/03/16 12:28:28;;;;;;;5.85;2.60;;;6.00;99.90;;;;;;5071347;28;20052;-83
2023/03/16 12:31:24;;;;;;;8.02;2.70;;;6.00;99.90;;;;;;5104735;28;20037;-83
2023/03/16 12:34:03;;;;;;;5.68;2.33;;;6.00;99.90;;;;;;5104867;28;20040;-83
2023/03/16 12:37:01;;;;;;;4.97;2.20;;;6.10;99.90;;;;;;5104854;28;20485;-83
2023/03/16 12:39:39;;;;;;;5.38;2.40;;;6.10;99.90;;;;;;5104307;28;20048;-83
2023/03/16 12:42:18;;;;;;;8.00;2.65;;;6.20;99.90;;;;;;5104773;28;20079;-83
2023/03/16 12:44:50;;;;;;;7.03;2.70;;;6.30;99.90;;;;;;5104495;28;20044;-83
2023/03/16 12:47:32;;;;;;;11.32;2.60;;;6.40;99.90;;;;;;5104904;28;20045;-83
2023/03/16 12:50:08;;;;;;;7.07;2.75;;;6.50;99.90;;;;;;5104526;28;20069;-83
2023/03/16 12:52:40;;;;;;;11.73;2.70;;;6.70;99.90;;;;;;5070212;28;20482;-83
2023/03/16 12:55:12;;;;;;;5.68;2.30;;;6.80;99.90;;;;;;5071119;28;20029;-83
2023/03/16 12:57:41;;;;;;;5.63;2.70;;;6.90;99.90;;;;;;5070992;28;20049;-82
2023/03/16 13:00:09;;;;;;;6.97;2.42;;;7.00;99.90;;;;;;5071355;28;20588;-83
2023/03/16 13:02:41;;;;;;;7.43;2.28;;;7.10;99.90;;;;;;5087178;28;20521;-82
2023/03/16 13:05:25;;;;;;;4.95;2.40;;;7.20;99.90;;;;;;5104652;28;20040;-82
2023/03/16 13:08:10;;;;;;;4.57;2.05;;;7.30;99.90;;;;;;5104849;28;20090;-82
2023/03/16 13:10:38;;;;;;;5.60;2.08;;;7.40;99.90;;;;;;5103966;28;20048;-82
2023/03/16 13:13:15;;;;;;;5.53;2.28;;;7.50;99.90;;;;;;5070577;28;20041;-83
2023/03/16 13:15:46;;;;;;;4.80;2.45;;;7.60;99.90;;;;;;5070559;28;20041;-82
2023/03/16 13:18:15;;;;;;;7.07;2.33;;;7.70;99.90;;;;;;5054936;28;20044;-82